sensor_id;sensor_type;location;lat;lon;timestamp;temperature;humidity
7676;DHT22;3880;51.464;-2.566;2022-11-14T00:00:37;12.90;99.90
7676;DHT22;3880;51.464;-2.566;2022-11-14T00:03:06;12.90;99.90
7676;DHT22;3880;51.464;-2.566;2022-11-14T00:05:38;13.10;99.90
7676;DHT22;3880;51.464;-2.566;2022-11-14T00:08:06;13.10;99.90
7676;DHT22;3880;51.464;-2.566;2022-11-14T00:10:33;13.10;99.90
7676;DHT22;3880;51.464;-2.566;2022-11-14T00:13:00;13.20;99.90
7676;DHT22;3880;51.464;-2.566;2022-11-14T00:15:27;13.40;99.90
7676;DHT22;3880;51.464;-2.566;2022-11-14T00:17:54;13.50;99.90
7676;DHT22;3880;51.464;-2.566;2022-11-14T00:20:22;13.40;99.90
7676;DHT22;3880;51.464;-2.566;2022-11-14T00:22:49;13.40;99.90
7676;DHT22;3880;51.464;-2.566;2022-11-14T00:25:16;13.50;99.90
7676;DHT22;3880;51.464;-2.566;2022-11-14T00:27:43;13.50;99.90
7676;DHT22;3880;51.464;-2.566;2022-11-14T00:30:11;13.60;99.90
7676;DHT22;3880;51.464;-2.566;2022-11-14T00:32:38;13.70;99.90
7676;DHT22;3880;51.464;-2.566;2022-11-14T00:35:07;13.60;99.90
7676;DHT22;3880;51.464;-2.566;2022-11-14T00:37:36;13.60;99.90
7676;DHT22;3880;51.464;-2.566;2022-11-14T00:40:04;13.70;99.90
7676;DHT22;3880;51.464;-2.566;2022-11-14T00:42:31;13.70;99.90
7676;DHT22;3880;51.464;-2.566;2022-11-14T00:44:59;13.60;99.90
7676;DHT22;3880;51.464;-2.566;2022-11-14T00:47:26;13.70;99.90
7676;DHT22;3880;51.464;-2.566;2022-11-14T00:49:53;13.70;99.90
7676;DHT22;3880;51.464;-2.566;2022-11-14T00:52:20;13.70;99.90
7676;DHT22;3880;51.464;-2.566;2022-11-14T00:54:48;13.70;99.90
7676;DHT22;3880;51.464;-2.566;2022-11-14T00:57:15;13.80;99.90
7676;DHT22;3880;51.464;-2.566;2022-11-14T00:59:42;13.80;99.90
7676;DHT22;3880;51.464;-2.566;2022-11-14T01:02:09;13.80;99.90
7676;DHT22;3880;51.464;-2.566;2022-11-14T01:04:36;13.90;99.90
7676;DHT22;3880;51.464;-2.566;2022-11-14T01:07:03;14.00;99.90
7676;DHT22;3880;51.464;-2.566;2022-11-14T01:09:30;14.00;99.90
7676;DHT22;3880;51.464;-2.566;2022-11-14T01:11:59;14.10;99.90
7676;DHT22;3880;51.464;-2.566;2022-11-14T01:14:29;14.10;99.90
7676;DHT22;3880;51.464;-2.566;2022-11-14T01:16:56;14.10;99.90
7676;DHT22;3880;51.464;-2.566;2022-11-14T01:19:23;14.10;99.90
7676;DHT22;3880;51.464;-2.566;2022-11-14T01:21:50;14.10;99.90
7676;DHT22;3880;51.464;-2.566;2022-11-14T01:24:17;14.00;99.90
7676;DHT22;3880;51.464;-2.566;2022-11-14T01:26:44;14.00;99.90
7676;DHT22;3880;51.464;-2.566;2022-11-14T01:29:12;13.90;99.90
7676;DHT22;3880;51.464;-2.566;2022-11-14T01:31:40;13.90;99.90
7676;DHT22;3880;51.464;-2.566;2022-11-14T01:34:07;14.10;99.90
7676;DHT22;3880;51.464;-2.566;2022-11-14T01:36:34;14.00;99.90
7676;DHT22;3880;51.464;-2.566;2022-11-14T01:39:01;14.10;99.90
7676;DHT22;3880;51.464;-2.566;2022-11-14T01:41:28;14.00;99.90
7676;DHT22;3880;51.464;-2.566;2022-11-14T01:43:55;14.10;99.90
7676;DHT22;3880;51.464;-2.566;2022-11-14T01:46:26;14.10;99.90
7676;DHT22;3880;51.464;-2.566;2022-11-14T01:48:57;14.20;99.90
7676;DHT22;3880;51.464;-2.566;2022-11-14T01:51:27;14.20;99.90
7676;DHT22;3880;51.464;-2.566;2022-11-14T01:53:57;14.20;99.90
7676;DHT22;3880;51.464;-2.566;2022-11-14T01:56:28;14.20;99.90
7676;DHT22;3880;51.464;-2.566;2022-11-14T01:59:02;14.20;99.90
7676;DHT22;3880;51.464;-2.566;2022-11-14T02:01:37;14.30;99.90
7676;DHT22;3880;51.464;-2.566;2022-11-14T02:04:07;14.30;99.90
7676;DHT22;3880;51.464;-2.566;2022-11-14T02:06:34;14.20;99.90
7676;DHT22;3880;51.464;-2.566;2022-11-14T02:09:04;14.20;99.90
7676;DHT22;3880;51.464;-2.566;2022-11-14T02:11:35;14.20;99.90
7676;DHT22;3880;51.464;-2.566;2022-11-14T02:14:03;14.30;99.90
7676;DHT22;3880;51.464;-2.566;2022-11-14T02:16:32;14.30;99.90
7676;DHT22;3880;51.464;-2.566;2022-11-14T02:18:59;14.40;99.90
7676;DHT22;3880;51.464;-2.566;2022-11-14T02:21:27;14.30;99.90
7676;DHT22;3880;51.464;-2.566;2022-11-14T02:23:54;14.30;99.90
7676;DHT22;3880;51.464;-2.566;2022-11-14T02:26:22;14.30;99.90
7676;DHT22;3880;51.464;-2.566;2022-11-14T02:28:49;14.30;99.90
7676;DHT22;3880;51.464;-2.566;2022-11-14T02:31:16;14.30;99.90
7676;DHT22;3880;51.464;-2.566;2022-11-14T02:33:43;14.30;99.90
7676;DHT22;3880;51.464;-2.566;2022-11-14T02:36:10;14.30;99.90
7676;DHT22;3880;51.464;-2.566;2022-11-14T02:38:39;14.30;99.90
7676;DHT22;3880;51.464;-2.566;2022-11-14T02:41:06;14.30;99.90
7676;DHT22;3880;51.464;-2.566;2022-11-14T02:43:36;14.20;99.90
7676;DHT22;3880;51.464;-2.566;2022-11-14T02:46:03;14.30;99.90
7676;DHT22;3880;51.464;-2.566;2022-11-14T02:48:30;14.20;99.90
7676;DHT22;3880;51.464;-2.566;2022-11-14T02:50:57;14.30;99.90
7676;DHT22;3880;51.464;-2.566;2022-11-14T02:53:24;14.40;99.90
7676;DHT22;3880;51.464;-2.566;2022-11-14T02:55:52;14.30;99.90
7676;DHT22;3880;51.464;-2.566;2022-11-14T02:58:19;14.30;99.90
7676;DHT22;3880;51.464;-2.566;2022-11-14T03:00:47;14.30;99.90
7676;DHT22;3880;51.464;-2.566;2022-11-14T03:03:15;14.30;99.90
7676;DHT22;3880;51.464;-2.566;2022-11-14T03:05:42;14.20;99.90
7676;DHT22;3880;51.464;-2.566;2022-11-14T03:08:09;14.20;99.90
7676;DHT22;3880;51.464;-2.566;2022-11-14T03:10:36;14.20;99.90
7676;DHT22;3880;51.464;-2.566;2022-11-14T03:13:05;14.20;99.90
7676;DHT22;3880;51.464;-2.566;2022-11-14T03:15:36;14.20;99.90
7676;DHT22;3880;51.464;-2.566;2022-11-14T03:18:03;14.10;99.90
7676;DHT22;3880;51.464;-2.566;2022-11-14T03:20:30;14.20;99.90
7676;DHT22;3880;51.464;-2.566;2022-11-14T03:22:57;14.20;99.90
7676;DHT22;3880;51.464;-2.566;2022-11-14T03:25:24;14.10;99.90
7676;DHT22;3880;51.464;-2.566;2022-11-14T03:27:51;14.10;99.90
7676;DHT22;3880;51.464;-2.566;2022-11-14T03:30:20;14.10;99.90
7676;DHT22;3880;51.464;-2.566;2022-11-14T03:32:47;14.00;99.90
7676;DHT22;3880;51.464;-2.566;2022-11-14T03:35:14;14.10;99.90
7676;DHT22;3880;51.464;-2.566;2022-11-14T03:37:41;14.00;99.90
7676;DHT22;3880;51.464;-2.566;2022-11-14T03:40:09;14.00;99.90
7676;DHT22;3880;51.464;-2.566;2022-11-14T03:42:38;14.00;99.90
7676;DHT22;3880;51.464;-2.566;2022-11-14T03:45:06;13.90;99.90
7676;DHT22;3880;51.464;-2.566;2022-11-14T03:47:37;13.90;99.90
7676;DHT22;3880;51.464;-2.566;2022-11-14T03:50:05;13.80;99.90
7676;DHT22;3880;51.464;-2.566;2022-11-14T03:52:32;13.80;99.90
7676;DHT22;3880;51.464;-2.566;2022-11-14T03:54:59;13.90;99.90
7676;DHT22;3880;51.464;-2.566;2022-11-14T03:57:26;13.90;99.90
7676;DHT22;3880;51.464;-2.566;2022-11-14T03:59:53;13.90;99.90
7676;DHT22;3880;51.464;-2.566;2022-11-14T04:02:20;14.00;99.90
7676;DHT22;3880;51.464;-2.566;2022-11-14T04:04:49;14.00;99.90
7676;DHT22;3880;51.464;-2.566;2022-11-14T04:07:16;14.20;99.90
7676;DHT22;3880;51.464;-2.566;2022-11-14T04:09:43;14.10;99.90
7676;DHT22;3880;51.464;-2.566;2022-11-14T04:12:11;14.20;99.90
7676;DHT22;3880;51.464;-2.566;2022-11-14T04:14:38;14.20;99.90
7676;DHT22;3880;51.464;-2.566;2022-11-14T04:17:05;14.20;99.90
7676;DHT22;3880;51.464;-2.566;2022-11-14T04:19:32;14.20;99.90
7676;DHT22;3880;51.464;-2.566;2022-11-14T04:22:01;14.20;99.90
7676;DHT22;3880;51.464;-2.566;2022-11-14T04:24:28;14.20;99.90
7676;DHT22;3880;51.464;-2.566;2022-11-14T04:26:55;14.20;99.90
7676;DHT22;3880;51.464;-2.566;2022-11-14T04:29:22;14.30;99.90
7676;DHT22;3880;51.464;-2.566;2022-11-14T04:31:49;14.30;99.90
7676;DHT22;3880;51.464;-2.566;2022-11-14T04:34:16;14.10;99.90
7676;DHT22;3880;51.464;-2.566;2022-11-14T04:36:43;14.20;99.90
7676;DHT22;3880;51.464;-2.566;2022-11-14T04:39:11;14.20;99.90
7676;DHT22;3880;51.464;-2.566;2022-11-14T04:41:39;14.10;99.90
7676;DHT22;3880;51.464;-2.566;2022-11-14T04:44:06;14.20;99.90
7676;DHT22;3880;51.464;-2.566;2022-11-14T04:46:33;14.20;99.90
7676;DHT22;3880;51.464;-2.566;2022-11-14T04:49:00;14.20;99.90
7676;DHT22;3880;51.464;-2.566;2022-11-14T04:51:27;14.20;99.90
7676;DHT22;3880;51.464;-2.566;2022-11-14T04:53:54;14.20;99.90
7676;DHT22;3880;51.464;-2.566;2022-11-14T04:56:23;14.10;99.90
7676;DHT22;3880;51.464;-2.566;2022-11-14T04:58:50;14.10;99.90
7676;DHT22;3880;51.464;-2.566;2022-11-14T05:01:17;14.00;99.90
7676;DHT22;3880;51.464;-2.566;2022-11-14T05:03:44;14.10;99.90
7676;DHT22;3880;51.464;-2.566;2022-11-14T05:06:11;14.20;99.90
7676;DHT22;3880;51.464;-2.566;2022-11-14T05:08:38;14.10;99.90
7676;DHT22;3880;51.464;-2.566;2022-11-14T05:11:05;14.10;99.90
7676;DHT22;3880;51.464;-2.566;2022-11-14T05:13:33;14.10;99.90
7676;DHT22;3880;51.464;-2.566;2022-11-14T05:16:00;14.10;99.90
7676;DHT22;3880;51.464;-2.566;2022-11-14T05:18:27;14.10;99.90
7676;DHT22;3880;51.464;-2.566;2022-11-14T05:20:57;14.20;99.90
7676;DHT22;3880;51.464;-2.566;2022-11-14T05:23:25;14.20;99.90
7676;DHT22;3880;51.464;-2.566;2022-11-14T05:25:59;14.20;99.90
7676;DHT22;3880;51.464;-2.566;2022-11-14T05:28:26;14.20;99.90
7676;DHT22;3880;51.464;-2.566;2022-11-14T05:30:59;14.30;99.90
7676;DHT22;3880;51.464;-2.566;2022-11-14T05:33:26;14.40;99.90
7676;DHT22;3880;51.464;-2.566;2022-11-14T05:35:53;14.50;99.90
7676;DHT22;3880;51.464;-2.566;2022-11-14T05:38:20;14.40;99.90
7676;DHT22;3880;51.464;-2.566;2022-11-14T05:40:47;14.40;99.90
7676;DHT22;3880;51.464;-2.566;2022-11-14T05:43:14;14.40;99.90
7676;DHT22;3880;51.464;-2.566;2022-11-14T05:45:41;14.40;99.90
7676;DHT22;3880;51.464;-2.566;2022-11-14T05:48:10;14.50;99.90
7676;DHT22;3880;51.464;-2.566;2022-11-14T05:50:37;14.50;99.90
7676;DHT22;3880;51.464;-2.566;2022-11-14T05:53:04;14.50;99.90
7676;DHT22;3880;51.464;-2.566;2022-11-14T05:55:31;14.40;99.90
7676;DHT22;3880;51.464;-2.566;2022-11-14T05:57:57;14.40;99.90
7676;DHT22;3880;51.464;-2.566;2022-11-14T06:00:25;14.40;99.90
7676;DHT22;3880;51.464;-2.566;2022-11-14T06:02:52;14.40;99.90
7676;DHT22;3880;51.464;-2.566;2022-11-14T06:05:21;14.50;99.90
7676;DHT22;3880;51.464;-2.566;2022-11-14T06:07:54;14.50;99.90
7676;DHT22;3880;51.464;-2.566;2022-11-14T06:10:21;14.50;99.90
7676;DHT22;3880;51.464;-2.566;2022-11-14T06:12:49;14.50;99.90
7676;DHT22;3880;51.464;-2.566;2022-11-14T06:15:16;14.50;99.90
7676;DHT22;3880;51.464;-2.566;2022-11-14T06:17:43;14.50;99.90
7676;DHT22;3880;51.464;-2.566;2022-11-14T06:20:10;14.60;99.90
7676;DHT22;3880;51.464;-2.566;2022-11-14T06:22:41;14.60;99.90
7676;DHT22;3880;51.464;-2.566;2022-11-14T06:25:09;14.70;99.90
7676;DHT22;3880;51.464;-2.566;2022-11-14T06:27:36;14.60;99.90
7676;DHT22;3880;51.464;-2.566;2022-11-14T06:30:04;14.60;99.90
7676;DHT22;3880;51.464;-2.566;2022-11-14T06:32:31;14.60;99.90
7676;DHT22;3880;51.464;-2.566;2022-11-14T06:34:58;14.60;99.90
7676;DHT22;3880;51.464;-2.566;2022-11-14T06:37:25;14.60;99.90
7676;DHT22;3880;51.464;-2.566;2022-11-14T06:39:53;14.50;99.90
7676;DHT22;3880;51.464;-2.566;2022-11-14T06:42:20;14.40;99.90
7676;DHT22;3880;51.464;-2.566;2022-11-14T06:44:47;14.50;99.90
7676;DHT22;3880;51.464;-2.566;2022-11-14T06:47:14;14.40;99.90
7676;DHT22;3880;51.464;-2.566;2022-11-14T06:49:43;14.40;99.90
7676;DHT22;3880;51.464;-2.566;2022-11-14T06:52:10;14.30;99.90
7676;DHT22;3880;51.464;-2.566;2022-11-14T06:54:37;14.20;99.90
7676;DHT22;3880;51.464;-2.566;2022-11-14T06:57:05;14.20;99.90
7676;DHT22;3880;51.464;-2.566;2022-11-14T06:59:32;14.20;99.90
7676;DHT22;3880;51.464;-2.566;2022-11-14T07:01:59;14.20;99.90
7676;DHT22;3880;51.464;-2.566;2022-11-14T07:04:26;14.10;99.90
7676;DHT22;3880;51.464;-2.566;2022-11-14T07:06:53;14.10;99.90
7676;DHT22;3880;51.464;-2.566;2022-11-14T07:09:21;14.10;99.90
7676;DHT22;3880;51.464;-2.566;2022-11-14T07:11:50;14.20;99.90
7676;DHT22;3880;51.464;-2.566;2022-11-14T07:14:19;14.00;99.90
7676;DHT22;3880;51.464;-2.566;2022-11-14T07:16:46;14.00;99.90
7676;DHT22;3880;51.464;-2.566;2022-11-14T07:19:13;14.00;99.90
7676;DHT22;3880;51.464;-2.566;2022-11-14T07:21:40;14.10;99.90
7676;DHT22;3880;51.464;-2.566;2022-11-14T07:24:09;14.10;99.90
7676;DHT22;3880;51.464;-2.566;2022-11-14T07:26:36;14.10;99.90
7676;DHT22;3880;51.464;-2.566;2022-11-14T07:29:04;14.10;99.90
7676;DHT22;3880;51.464;-2.566;2022-11-14T07:31:32;14.10;99.90
7676;DHT22;3880;51.464;-2.566;2022-11-14T07:33:59;14.10;99.90
7676;DHT22;3880;51.464;-2.566;2022-11-14T07:36:26;14.10;99.90
7676;DHT22;3880;51.464;-2.566;2022-11-14T07:38:53;14.30;99.90
7676;DHT22;3880;51.464;-2.566;2022-11-14T07:41:20;14.20;99.90
7676;DHT22;3880;51.464;-2.566;2022-11-14T07:43:47;14.20;99.90
7676;DHT22;3880;51.464;-2.566;2022-11-14T07:46:16;14.10;99.90
7676;DHT22;3880;51.464;-2.566;2022-11-14T07:48:45;14.10;99.90
7676;DHT22;3880;51.464;-2.566;2022-11-14T07:51:14;13.90;99.90
7676;DHT22;3880;51.464;-2.566;2022-11-14T07:53:41;13.90;99.90
7676;DHT22;3880;51.464;-2.566;2022-11-14T07:56:09;13.90;99.90
7676;DHT22;3880;51.464;-2.566;2022-11-14T07:58:38;14.00;99.90
7676;DHT22;3880;51.464;-2.566;2022-11-14T08:01:06;14.00;99.90
7676;DHT22;3880;51.464;-2.566;2022-11-14T08:03:34;14.20;99.90
7676;DHT22;3880;51.464;-2.566;2022-11-14T08:06:04;14.30;99.90
7676;DHT22;3880;51.464;-2.566;2022-11-14T08:08:32;14.40;99.90
7676;DHT22;3880;51.464;-2.566;2022-11-14T08:11:00;14.30;99.90
7676;DHT22;3880;51.464;-2.566;2022-11-14T08:13:27;14.20;99.90
7676;DHT22;3880;51.464;-2.566;2022-11-14T08:15:54;14.20;99.90
7676;DHT22;3880;51.464;-2.566;2022-11-14T08:18:22;14.20;99.90
7676;DHT22;3880;51.464;-2.566;2022-11-14T08:20:49;14.20;99.90
7676;DHT22;3880;51.464;-2.566;2022-11-14T08:23:17;14.30;99.90
7676;DHT22;3880;51.464;-2.566;2022-11-14T08:25:44;14.30;99.90
7676;DHT22;3880;51.464;-2.566;2022-11-14T08:28:11;14.40;99.90
7676;DHT22;3880;51.464;-2.566;2022-11-14T08:30:38;14.50;99.90
7676;DHT22;3880;51.464;-2.566;2022-11-14T08:33:06;14.50;99.90
7676;DHT22;3880;51.464;-2.566;2022-11-14T08:35:33;14.50;99.90
7676;DHT22;3880;51.464;-2.566;2022-11-14T08:38:00;14.40;99.90
7676;DHT22;3880;51.464;-2.566;2022-11-14T08:40:29;14.40;99.90
7676;DHT22;3880;51.464;-2.566;2022-11-14T08:42:59;14.50;99.90
7676;DHT22;3880;51.464;-2.566;2022-11-14T08:45:27;14.50;99.90
7676;DHT22;3880;51.464;-2.566;2022-11-14T08:47:54;14.60;99.90
7676;DHT22;3880;51.464;-2.566;2022-11-14T08:50:21;14.70;99.90
7676;DHT22;3880;51.464;-2.566;2022-11-14T08:52:49;14.80;99.90
7676;DHT22;3880;51.464;-2.566;2022-11-14T08:55:16;14.80;99.90
7676;DHT22;3880;51.464;-2.566;2022-11-14T08:57:45;14.80;99.90
7676;DHT22;3880;51.464;-2.566;2022-11-14T09:00:13;14.90;99.90
7676;DHT22;3880;51.464;-2.566;2022-11-14T09:02:40;14.90;99.90
7676;DHT22;3880;51.464;-2.566;2022-11-14T09:05:08;15.00;99.90
7676;DHT22;3880;51.464;-2.566;2022-11-14T09:07:37;15.00;99.90
7676;DHT22;3880;51.464;-2.566;2022-11-14T09:10:05;15.10;99.90
7676;DHT22;3880;51.464;-2.566;2022-11-14T09:12:33;15.10;99.90
7676;DHT22;3880;51.464;-2.566;2022-11-14T09:15:01;15.00;99.90
7676;DHT22;3880;51.464;-2.566;2022-11-14T09:17:29;14.90;99.90
7676;DHT22;3880;51.464;-2.566;2022-11-14T09:19:55;15.00;99.90
7676;DHT22;3880;51.464;-2.566;2022-11-14T09:22:23;15.10;99.90
7676;DHT22;3880;51.464;-2.566;2022-11-14T09:24:49;15.30;99.90
7676;DHT22;3880;51.464;-2.566;2022-11-14T09:27:17;15.40;99.90
7676;DHT22;3880;51.464;-2.566;2022-11-14T09:29:44;15.60;99.90
7676;DHT22;3880;51.464;-2.566;2022-11-14T09:32:13;16.00;99.90
7676;DHT22;3880;51.464;-2.566;2022-11-14T09:34:40;16.60;99.90
7676;DHT22;3880;51.464;-2.566;2022-11-14T09:37:10;17.30;99.90
7676;DHT22;3880;51.464;-2.566;2022-11-14T09:39:38;18.20;99.90
7676;DHT22;3880;51.464;-2.566;2022-11-14T09:42:27;18.60;99.90
7676;DHT22;3880;51.464;-2.566;2022-11-14T09:44:59;19.60;99.90
7676;DHT22;3880;51.464;-2.566;2022-11-14T09:47:30;19.90;99.90
7676;DHT22;3880;51.464;-2.566;2022-11-14T09:50:05;20.60;99.90
7676;DHT22;3880;51.464;-2.566;2022-11-14T09:52:36;20.60;99.90
7676;DHT22;3880;51.464;-2.566;2022-11-14T09:55:09;20.30;99.90
7676;DHT22;3880;51.464;-2.566;2022-11-14T09:57:39;19.70;99.90
7676;DHT22;3880;51.464;-2.566;2022-11-14T10:00:14;19.20;99.90
7676;DHT22;3880;51.464;-2.566;2022-11-14T10:02:55;19.20;99.90
7676;DHT22;3880;51.464;-2.566;2022-11-14T10:05:38;19.50;99.90
7676;DHT22;3880;51.464;-2.566;2022-11-14T10:11:21;21.50;99.90
7676;DHT22;3880;51.464;-2.566;2022-11-14T10:14:07;22.50;99.90
7676;DHT22;3880;51.464;-2.566;2022-11-14T10:16:43;22.80;99.90
7676;DHT22;3880;51.464;-2.566;2022-11-14T10:19:25;23.10;99.90
7676;DHT22;3880;51.464;-2.566;2022-11-14T10:22:10;22.80;99.90
7676;DHT22;3880;51.464;-2.566;2022-11-14T10:25:04;23.00;99.90
7676;DHT22;3880;51.464;-2.566;2022-11-14T10:27:40;24.10;99.90
7676;DHT22;3880;51.464;-2.566;2022-11-14T10:30:10;24.60;99.90
7676;DHT22;3880;51.464;-2.566;2022-11-14T10:32:59;24.70;99.90
7676;DHT22;3880;51.464;-2.566;2022-11-14T10:35:35;25.10;99.90
7676;DHT22;3880;51.464;-2.566;2022-11-14T10:38:11;25.90;99.90
7676;DHT22;3880;51.464;-2.566;2022-11-14T10:40:41;26.40;99.90
7676;DHT22;3880;51.464;-2.566;2022-11-14T10:43:18;26.10;99.90
7676;DHT22;3880;51.464;-2.566;2022-11-14T10:45:50;24.90;99.90
7676;DHT22;3880;51.464;-2.566;2022-11-14T10:48:34;24.00;99.90
7676;DHT22;3880;51.464;-2.566;2022-11-14T10:51:07;24.10;99.90
7676;DHT22;3880;51.464;-2.566;2022-11-14T10:53:45;24.50;99.90
7676;DHT22;3880;51.464;-2.566;2022-11-14T10:56:14;24.80;99.90
7676;DHT22;3880;51.464;-2.566;2022-11-14T10:58:41;24.40;99.90
7676;DHT22;3880;51.464;-2.566;2022-11-14T11:01:31;25.10;99.90
7676;DHT22;3880;51.464;-2.566;2022-11-14T11:04:11;26.20;99.90
7676;DHT22;3880;51.464;-2.566;2022-11-14T11:06:40;26.20;99.90
7676;DHT22;3880;51.464;-2.566;2022-11-14T11:09:08;26.30;99.90
7676;DHT22;3880;51.464;-2.566;2022-11-14T11:11:56;25.40;99.90
7676;DHT22;3880;51.464;-2.566;2022-11-14T11:14:24;23.80;99.90
7676;DHT22;3880;51.464;-2.566;2022-11-14T11:17:07;22.50;99.90
7676;DHT22;3880;51.464;-2.566;2022-11-14T11:19:34;21.20;99.90
7676;DHT22;3880;51.464;-2.566;2022-11-14T11:22:04;20.60;99.90
7676;DHT22;3880;51.464;-2.566;2022-11-14T11:24:33;21.00;99.90
7676;DHT22;3880;51.464;-2.566;2022-11-14T11:27:20;19.40;99.90
7676;DHT22;3880;51.464;-2.566;2022-11-14T11:30:05;19.30;99.90
7676;DHT22;3880;51.464;-2.566;2022-11-14T11:32:32;18.50;99.90
7676;DHT22;3880;51.464;-2.566;2022-11-14T11:35:01;18.20;99.90
7676;DHT22;3880;51.464;-2.566;2022-11-14T11:37:34;17.90;99.90
7676;DHT22;3880;51.464;-2.566;2022-11-14T11:40:05;17.60;99.90
7676;DHT22;3880;51.464;-2.566;2022-11-14T11:42:41;17.40;99.90
7676;DHT22;3880;51.464;-2.566;2022-11-14T11:45:12;17.20;99.90
7676;DHT22;3880;51.464;-2.566;2022-11-14T11:47:47;17.10;99.90
7676;DHT22;3880;51.464;-2.566;2022-11-14T11:50:19;17.00;99.90
7676;DHT22;3880;51.464;-2.566;2022-11-14T11:53:00;16.90;99.90
7676;DHT22;3880;51.464;-2.566;2022-11-14T11:55:32;17.00;99.90
7676;DHT22;3880;51.464;-2.566;2022-11-14T11:58:03;16.90;99.90
7676;DHT22;3880;51.464;-2.566;2022-11-14T12:00:31;16.90;99.90
7676;DHT22;3880;51.464;-2.566;2022-11-14T12:02:59;16.80;99.90
7676;DHT22;3880;51.464;-2.566;2022-11-14T12:05:33;16.70;99.90
7676;DHT22;3880;51.464;-2.566;2022-11-14T12:08:07;16.80;99.90
7676;DHT22;3880;51.464;-2.566;2022-11-14T12:10:39;16.70;99.90
7676;DHT22;3880;51.464;-2.566;2022-11-14T12:13:35;16.80;99.90
7676;DHT22;3880;51.464;-2.566;2022-11-14T12:16:18;16.70;99.90
7676;DHT22;3880;51.464;-2.566;2022-11-14T12:19:14;16.60;99.90
7676;DHT22;3880;51.464;-2.566;2022-11-14T12:22:10;16.80;99.90
7676;DHT22;3880;51.464;-2.566;2022-11-14T12:24:58;17.00;99.90
7676;DHT22;3880;51.464;-2.566;2022-11-14T12:27:53;17.20;99.90
7676;DHT22;3880;51.464;-2.566;2022-11-14T12:30:24;17.20;99.90
7676;DHT22;3880;51.464;-2.566;2022-11-14T12:32:56;17.00;99.90
7676;DHT22;3880;51.464;-2.566;2022-11-14T12:35:27;16.90;99.90
7676;DHT22;3880;51.464;-2.566;2022-11-14T12:37:57;16.90;99.90
7676;DHT22;3880;51.464;-2.566;2022-11-14T12:43:43;16.90;99.90
7676;DHT22;3880;51.464;-2.566;2022-11-14T12:46:20;16.90;99.90
7676;DHT22;3880;51.464;-2.566;2022-11-14T12:48:47;16.80;99.90
7676;DHT22;3880;51.464;-2.566;2022-11-14T12:51:47;16.70;99.90
7676;DHT22;3880;51.464;-2.566;2022-11-14T12:54:43;16.70;99.90
7676;DHT22;3880;51.464;-2.566;2022-11-14T12:57:20;16.70;99.90
7676;DHT22;3880;51.464;-2.566;2022-11-14T13:00:09;16.70;99.90
7676;DHT22;3880;51.464;-2.566;2022-11-14T13:05:58;16.80;99.90
7676;DHT22;3880;51.464;-2.566;2022-11-14T13:08:48;16.50;99.90
7676;DHT22;3880;51.464;-2.566;2022-11-14T13:11:38;16.30;99.90
7676;DHT22;3880;51.464;-2.566;2022-11-14T13:14:23;15.80;99.90
7676;DHT22;3880;51.464;-2.566;2022-11-14T13:17:23;15.30;99.90
7676;DHT22;3880;51.464;-2.566;2022-11-14T13:20:29;15.20;99.90
7676;DHT22;3880;51.464;-2.566;2022-11-14T13:26:39;14.90;99.90
7676;DHT22;3880;51.464;-2.566;2022-11-14T13:29:06;14.80;99.90
7676;DHT22;3880;51.464;-2.566;2022-11-14T13:31:48;14.80;99.90
7676;DHT22;3880;51.464;-2.566;2022-11-14T13:34:35;14.60;99.90
7676;DHT22;3880;51.464;-2.566;2022-11-14T13:37:12;14.50;99.90
7676;DHT22;3880;51.464;-2.566;2022-11-14T13:39:47;14.40;99.90
7676;DHT22;3880;51.464;-2.566;2022-11-14T13:42:29;14.30;99.90
7676;DHT22;3880;51.464;-2.566;2022-11-14T13:48:35;14.20;99.90
7676;DHT22;3880;51.464;-2.566;2022-11-14T13:51:09;14.20;99.90
7676;DHT22;3880;51.464;-2.566;2022-11-14T13:53:38;14.20;99.90
7676;DHT22;3880;51.464;-2.566;2022-11-14T13:56:17;14.20;99.90
7676;DHT22;3880;51.464;-2.566;2022-11-14T13:59:23;14.20;99.90
7676;DHT22;3880;51.464;-2.566;2022-11-14T14:05:11;14.00;99.90
7676;DHT22;3880;51.464;-2.566;2022-11-14T14:07:58;13.80;99.90
7676;DHT22;3880;51.464;-2.566;2022-11-14T14:10:33;13.80;99.90
7676;DHT22;3880;51.464;-2.566;2022-11-14T14:13:13;13.80;99.90
7676;DHT22;3880;51.464;-2.566;2022-11-14T14:15:47;13.70;99.90
7676;DHT22;3880;51.464;-2.566;2022-11-14T14:18:25;13.80;99.90
7676;DHT22;3880;51.464;-2.566;2022-11-14T14:20:59;13.80;99.90
7676;DHT22;3880;51.464;-2.566;2022-11-14T14:23:38;13.80;99.90
7676;DHT22;3880;51.464;-2.566;2022-11-14T14:26:17;13.80;99.90
7676;DHT22;3880;51.464;-2.566;2022-11-14T14:28:59;13.80;99.90
7676;DHT22;3880;51.464;-2.566;2022-11-14T14:31:34;13.80;99.90
7676;DHT22;3880;51.464;-2.566;2022-11-14T14:34:02;13.80;99.90
7676;DHT22;3880;51.464;-2.566;2022-11-14T14:36:29;13.80;99.90
7676;DHT22;3880;51.464;-2.566;2022-11-14T14:39:15;13.80;99.90
7676;DHT22;3880;51.464;-2.566;2022-11-14T14:41:43;13.70;99.90
7676;DHT22;3880;51.464;-2.566;2022-11-14T14:44:27;13.90;99.90
7676;DHT22;3880;51.464;-2.566;2022-11-14T14:46:54;13.90;99.90
7676;DHT22;3880;51.464;-2.566;2022-11-14T14:49:23;13.90;99.90
7676;DHT22;3880;51.464;-2.566;2022-11-14T14:51:51;13.80;99.90
7676;DHT22;3880;51.464;-2.566;2022-11-14T14:54:22;13.90;99.90
7676;DHT22;3880;51.464;-2.566;2022-11-14T14:56:54;13.90;99.90
7676;DHT22;3880;51.464;-2.566;2022-11-14T14:59:26;13.90;99.90
7676;DHT22;3880;51.464;-2.566;2022-11-14T15:01:53;13.70;99.90
7676;DHT22;3880;51.464;-2.566;2022-11-14T15:04:24;13.70;99.90
7676;DHT22;3880;51.464;-2.566;2022-11-14T15:06:53;13.70;99.90
7676;DHT22;3880;51.464;-2.566;2022-11-14T15:09:24;13.60;99.90
7676;DHT22;3880;51.464;-2.566;2022-11-14T15:11:54;13.60;99.90
7676;DHT22;3880;51.464;-2.566;2022-11-14T15:14:24;13.60;99.90
7676;DHT22;3880;51.464;-2.566;2022-11-14T15:16:52;13.60;99.90
7676;DHT22;3880;51.464;-2.566;2022-11-14T15:19:23;13.50;99.90
7676;DHT22;3880;51.464;-2.566;2022-11-14T15:22:18;13.50;99.90
7676;DHT22;3880;51.464;-2.566;2022-11-14T15:25:14;13.40;99.90
7676;DHT22;3880;51.464;-2.566;2022-11-14T15:27:48;13.40;99.90
7676;DHT22;3880;51.464;-2.566;2022-11-14T15:30:22;13.20;99.90
7676;DHT22;3880;51.464;-2.566;2022-11-14T15:32:51;13.10;99.90
7676;DHT22;3880;51.464;-2.566;2022-11-14T15:35:27;13.10;99.90
7676;DHT22;3880;51.464;-2.566;2022-11-14T15:38:05;13.10;99.90
7676;DHT22;3880;51.464;-2.566;2022-11-14T15:41:09;13.10;99.90
7676;DHT22;3880;51.464;-2.566;2022-11-14T15:43:49;13.10;99.90
7676;DHT22;3880;51.464;-2.566;2022-11-14T15:46:34;13.10;99.90
7676;DHT22;3880;51.464;-2.566;2022-11-14T15:49:07;13.00;99.90
7676;DHT22;3880;51.464;-2.566;2022-11-14T15:51:43;13.10;99.90
7676;DHT22;3880;51.464;-2.566;2022-11-14T15:54:25;13.00;99.90
7676;DHT22;3880;51.464;-2.566;2022-11-14T15:56:55;13.00;99.90
7676;DHT22;3880;51.464;-2.566;2022-11-14T15:59:23;13.00;99.90
7676;DHT22;3880;51.464;-2.566;2022-11-14T16:01:53;13.00;99.90
7676;DHT22;3880;51.464;-2.566;2022-11-14T16:04:25;13.00;99.90
7676;DHT22;3880;51.464;-2.566;2022-11-14T16:06:54;13.00;99.90
7676;DHT22;3880;51.464;-2.566;2022-11-14T16:09:24;13.00;99.90
7676;DHT22;3880;51.464;-2.566;2022-11-14T16:11:56;12.90;99.90
7676;DHT22;3880;51.464;-2.566;2022-11-14T16:14:23;12.90;99.90
7676;DHT22;3880;51.464;-2.566;2022-11-14T16:16:50;12.90;99.90
7676;DHT22;3880;51.464;-2.566;2022-11-14T16:19:17;12.80;99.90
7676;DHT22;3880;51.464;-2.566;2022-11-14T16:21:46;12.90;99.90
7676;DHT22;3880;51.464;-2.566;2022-11-14T16:24:16;12.80;99.90
7676;DHT22;3880;51.464;-2.566;2022-11-14T16:26:44;12.80;99.90
7676;DHT22;3880;51.464;-2.566;2022-11-14T16:29:14;12.80;99.90